sensor_id;sensor_type;location;lat;lon;timestamp;P1;durP1;ratioP1;P2;durP2;ratioP2
37859;SDS011;23698;52.014;5.190;2023-02-24T00:01:09;17.10;;;3.40;;
37859;SDS011;23698;52.014;5.190;2023-02-24T00:03:58;28.58;;;3.47;;
37859;SDS011;23698;52.014;5.190;2023-02-24T00:06:45;21.80;;;3.95;;
37859;SDS011;23698;52.014;5.190;2023-02-24T00:09:32;23.27;;;4.13;;
37859;SDS011;23698;52.014;5.190;2023-02-24T00:12:21;22.90;;;3.88;;
37859;SDS011;23698;52.014;5.190;2023-02-24T00:15:10;21.42;;;4.10;;
37859;SDS011;23698;52.014;5.190;2023-02-24T00:17:57;23.52;;;4.15;;
37859;SDS011;23698;52.014;5.190;2023-02-24T00:20:51;15.85;;;3.97;;
37859;SDS011;23698;52.014;5.190;2023-02-24T00:23:41;26.30;;;4.55;;
37859;SDS011;23698;52.014;5.190;2023-02-24T00:26:30;15.25;;;3.60;;
37859;SDS011;23698;52.014;5.190;2023-02-24T00:29:19;25.05;;;4.30;;
37859;SDS011;23698;52.014;5.190;2023-02-24T00:32:09;18.00;;;4.50;;
37859;SDS011;23698;52.014;5.190;2023-02-24T00:34:59;19.55;;;4.47;;
37859;SDS011;23698;52.014;5.190;2023-02-24T00:37:45;23.63;;;4.50;;
37859;SDS011;23698;52.014;5.190;2023-02-24T00:40:35;22.77;;;3.70;;
37859;SDS011;23698;52.014;5.190;2023-02-24T00:43:22;18.85;;;4.68;;
37859;SDS011;23698;52.014;5.190;2023-02-24T00:46:09;20.08;;;5.35;;
37859;SDS011;23698;52.014;5.190;2023-02-24T00:48:58;19.70;;;5.28;;
37859;SDS011;23698;52.014;5.190;2023-02-24T00:51:48;23.08;;;4.82;;
37859;SDS011;23698;52.014;5.190;2023-02-24T00:54:39;21.17;;;3.90;;
37859;SDS011;23698;52.014;5.190;2023-02-24T00:57:26;17.67;;;4.18;;
37859;SDS011;23698;52.014;5.190;2023-02-24T01:00:14;15.70;;;4.55;;
37859;SDS011;23698;52.014;5.190;2023-02-24T01:03:01;18.27;;;4.82;;
37859;SDS011;23698;52.014;5.190;2023-02-24T01:05:50;17.23;;;4.10;;
37859;SDS011;23698;52.014;5.190;2023-02-24T01:08:38;25.27;;;4.80;;
37859;SDS011;23698;52.014;5.190;2023-02-24T01:11:27;29.50;;;4.53;;
37859;SDS011;23698;52.014;5.190;2023-02-24T01:14:36;26.08;;;5.20;;
37859;SDS011;23698;52.014;5.190;2023-02-24T01:17:23;19.33;;;4.25;;
37859;SDS011;23698;52.014;5.190;2023-02-24T01:20:11;23.25;;;4.88;;
37859;SDS011;23698;52.014;5.190;2023-02-24T01:23:04;22.90;;;5.13;;
37859;SDS011;23698;52.014;5.190;2023-02-24T01:25:50;17.17;;;4.85;;
37859;SDS011;23698;52.014;5.190;2023-02-24T01:28:38;20.30;;;4.55;;
37859;SDS011;23698;52.014;5.190;2023-02-24T01:31:25;21.15;;;4.55;;
37859;SDS011;23698;52.014;5.190;2023-02-24T01:34:12;29.23;;;4.93;;
37859;SDS011;23698;52.014;5.190;2023-02-24T01:36:59;20.55;;;4.93;;
37859;SDS011;23698;52.014;5.190;2023-02-24T01:39:47;18.98;;;4.32;;
37859;SDS011;23698;52.014;5.190;2023-02-24T01:42:34;15.70;;;4.13;;
37859;SDS011;23698;52.014;5.190;2023-02-24T01:45:22;12.43;;;4.72;;
37859;SDS011;23698;52.014;5.190;2023-02-24T01:48:13;20.48;;;5.43;;
37859;SDS011;23698;52.014;5.190;2023-02-24T01:51:01;27.83;;;4.63;;
37859;SDS011;23698;52.014;5.190;2023-02-24T01:53:48;28.15;;;5.07;;
37859;SDS011;23698;52.014;5.190;2023-02-24T01:56:37;18.42;;;5.00;;
37859;SDS011;23698;52.014;5.190;2023-02-24T01:59:26;22.17;;;5.07;;
37859;SDS011;23698;52.014;5.190;2023-02-24T02:02:15;16.48;;;3.67;;
37859;SDS011;23698;52.014;5.190;2023-02-24T02:05:05;18.40;;;4.80;;
37859;SDS011;23698;52.014;5.190;2023-02-24T02:07:54;17.27;;;4.90;;
37859;SDS011;23698;52.014;5.190;2023-02-24T02:10:42;14.70;;;4.85;;
37859;SDS011;23698;52.014;5.190;2023-02-24T02:13:30;19.95;;;4.35;;
37859;SDS011;23698;52.014;5.190;2023-02-24T02:16:26;22.83;;;4.57;;
37859;SDS011;23698;52.014;5.190;2023-02-24T02:19:37;24.38;;;5.05;;
37859;SDS011;23698;52.014;5.190;2023-02-24T02:22:56;20.38;;;5.72;;
37859;SDS011;23698;52.014;5.190;2023-02-24T02:26:22;27.80;;;5.45;;
37859;SDS011;23698;52.014;5.190;2023-02-24T02:36:00;19.65;;;3.70;;
37859;SDS011;23698;52.014;5.190;2023-02-24T02:39:00;20.60;;;4.47;;
37859;SDS011;23698;52.014;5.190;2023-02-24T02:41:59;15.75;;;4.47;;
37859;SDS011;23698;52.014;5.190;2023-02-24T02:45:01;16.85;;;3.75;;
37859;SDS011;23698;52.014;5.190;2023-02-24T02:47:52;10.95;;;3.85;;
37859;SDS011;23698;52.014;5.190;2023-02-24T02:50:46;20.25;;;4.57;;
37859;SDS011;23698;52.014;5.190;2023-02-24T02:53:38;30.42;;;5.72;;
37859;SDS011;23698;52.014;5.190;2023-02-24T02:56:36;20.58;;;4.10;;
37859;SDS011;23698;52.014;5.190;2023-02-24T02:59:25;15.98;;;4.07;;
37859;SDS011;23698;52.014;5.190;2023-02-24T03:02:16;9.13;;;3.83;;
37859;SDS011;23698;52.014;5.190;2023-02-24T03:05:13;22.38;;;4.40;;
37859;SDS011;23698;52.014;5.190;2023-02-24T03:08:04;14.65;;;4.28;;
37859;SDS011;23698;52.014;5.190;2023-02-24T03:11:00;12.70;;;3.42;;
37859;SDS011;23698;52.014;5.190;2023-02-24T03:13:50;20.70;;;3.75;;
37859;SDS011;23698;52.014;5.190;2023-02-24T03:16:40;20.65;;;4.68;;
37859;SDS011;23698;52.014;5.190;2023-02-24T03:19:31;21.00;;;5.05;;
37859;SDS011;23698;52.014;5.190;2023-02-24T03:22:22;14.13;;;3.83;;
37859;SDS011;23698;52.014;5.190;2023-02-24T03:25:15;20.23;;;4.13;;
37859;SDS011;23698;52.014;5.190;2023-02-24T03:28:04;21.13;;;3.97;;
37859;SDS011;23698;52.014;5.190;2023-02-24T03:31:03;22.60;;;4.35;;
37859;SDS011;23698;52.014;5.190;2023-02-24T03:33:58;28.38;;;4.57;;
37859;SDS011;23698;52.014;5.190;2023-02-24T03:36:49;16.83;;;4.40;;
37859;SDS011;23698;52.014;5.190;2023-02-24T03:39:39;13.50;;;3.30;;
37859;SDS011;23698;52.014;5.190;2023-02-24T03:42:33;19.13;;;3.20;;
37859;SDS011;23698;52.014;5.190;2023-02-24T03:45:21;24.05;;;4.13;;
37859;SDS011;23698;52.014;5.190;2023-02-24T03:48:11;13.93;;;3.42;;
37859;SDS011;23698;52.014;5.190;2023-02-24T03:51:01;27.00;;;4.05;;
37859;SDS011;23698;52.014;5.190;2023-02-24T03:54:05;15.77;;;3.15;;
37859;SDS011;23698;52.014;5.190;2023-02-24T03:57:09;19.25;;;3.13;;
37859;SDS011;23698;52.014;5.190;2023-02-24T04:00:04;17.55;;;3.22;;
37859;SDS011;23698;52.014;5.190;2023-02-24T04:03:18;16.52;;;3.10;;
37859;SDS011;23698;52.014;5.190;2023-02-24T04:06:19;14.60;;;4.85;;
37859;SDS011;23698;52.014;5.190;2023-02-24T04:09:15;13.55;;;2.92;;
37859;SDS011;23698;52.014;5.190;2023-02-24T04:12:18;14.15;;;2.90;;
37859;SDS011;23698;52.014;5.190;2023-02-24T04:15:17;12.23;;;3.03;;
37859;SDS011;23698;52.014;5.190;2023-02-24T04:18:08;13.63;;;3.15;;
37859;SDS011;23698;52.014;5.190;2023-02-24T04:21:03;16.30;;;2.92;;
37859;SDS011;23698;52.014;5.190;2023-02-24T04:23:53;19.83;;;3.10;;
37859;SDS011;23698;52.014;5.190;2023-02-24T04:26:42;19.95;;;3.65;;
37859;SDS011;23698;52.014;5.190;2023-02-24T04:29:32;10.80;;;2.93;;
37859;SDS011;23698;52.014;5.190;2023-02-24T04:32:24;20.50;;;4.45;;
37859;SDS011;23698;52.014;5.190;2023-02-24T04:35:15;15.52;;;2.90;;
37859;SDS011;23698;52.014;5.190;2023-02-24T04:38:08;8.98;;;2.38;;
37859;SDS011;23698;52.014;5.190;2023-02-24T04:40:55;17.80;;;2.70;;
37859;SDS011;23698;52.014;5.190;2023-02-24T04:43:42;11.80;;;2.65;;
37859;SDS011;23698;52.014;5.190;2023-02-24T04:46:30;15.05;;;2.63;;
37859;SDS011;23698;52.014;5.190;2023-02-24T04:49:17;14.43;;;2.53;;
37859;SDS011;23698;52.014;5.190;2023-02-24T04:52:06;12.35;;;2.42;;
37859;SDS011;23698;52.014;5.190;2023-02-24T04:54:55;13.95;;;2.10;;
37859;SDS011;23698;52.014;5.190;2023-02-24T04:57:42;13.73;;;2.47;;
37859;SDS011;23698;52.014;5.190;2023-02-24T05:00:30;11.68;;;2.30;;
37859;SDS011;23698;52.014;5.190;2023-02-24T05:03:20;8.80;;;1.65;;
37859;SDS011;23698;52.014;5.190;2023-02-24T05:06:13;26.05;;;10.30;;
37859;SDS011;23698;52.014;5.190;2023-02-24T05:09:01;14.20;;;2.35;;
37859;SDS011;23698;52.014;5.190;2023-02-24T05:11:59;9.10;;;2.70;;
37859;SDS011;23698;52.014;5.190;2023-02-24T05:14:46;12.88;;;2.25;;
37859;SDS011;23698;52.014;5.190;2023-02-24T05:17:33;9.65;;;2.10;;
37859;SDS011;23698;52.014;5.190;2023-02-24T05:20:20;17.75;;;3.75;;
37859;SDS011;23698;52.014;5.190;2023-02-24T05:23:24;14.68;;;2.90;;
37859;SDS011;23698;52.014;5.190;2023-02-24T05:26:12;9.70;;;2.00;;
37859;SDS011;23698;52.014;5.190;2023-02-24T05:29:03;11.95;;;1.92;;
37859;SDS011;23698;52.014;5.190;2023-02-24T05:31:50;11.90;;;2.13;;
37859;SDS011;23698;52.014;5.190;2023-02-24T05:34:38;12.13;;;2.25;;
37859;SDS011;23698;52.014;5.190;2023-02-24T05:37:26;15.55;;;3.85;;
37859;SDS011;23698;52.014;5.190;2023-02-24T05:40:13;11.88;;;3.55;;
37859;SDS011;23698;52.014;5.190;2023-02-24T05:43:04;13.60;;;2.20;;
37859;SDS011;23698;52.014;5.190;2023-02-24T05:45:51;10.35;;;3.05;;
37859;SDS011;23698;52.014;5.190;2023-02-24T05:48:38;7.95;;;3.20;;
37859;SDS011;23698;52.014;5.190;2023-02-24T05:51:25;10.18;;;2.72;;
37859;SDS011;23698;52.014;5.190;2023-02-24T05:54:19;14.20;;;2.10;;
37859;SDS011;23698;52.014;5.190;2023-02-24T05:57:08;15.55;;;1.73;;
37859;SDS011;23698;52.014;5.190;2023-02-24T05:59:57;10.10;;;2.25;;
37859;SDS011;23698;52.014;5.190;2023-02-24T06:02:45;13.65;;;3.72;;
37859;SDS011;23698;52.014;5.190;2023-02-24T06:08:23;8.13;;;1.67;;
37859;SDS011;23698;52.014;5.190;2023-02-24T06:11:10;9.43;;;1.95;;
37859;SDS011;23698;52.014;5.190;2023-02-24T06:13:57;9.10;;;2.00;;
37859;SDS011;23698;52.014;5.190;2023-02-24T06:16:44;14.68;;;3.67;;
37859;SDS011;23698;52.014;5.190;2023-02-24T06:19:32;14.80;;;2.15;;
37859;SDS011;23698;52.014;5.190;2023-02-24T06:22:19;16.65;;;2.30;;
37859;SDS011;23698;52.014;5.190;2023-02-24T06:25:07;11.70;;;2.08;;
37859;SDS011;23698;52.014;5.190;2023-02-24T06:27:56;11.48;;;3.15;;
37859;SDS011;23698;52.014;5.190;2023-02-24T06:30:45;8.05;;;2.20;;
37859;SDS011;23698;52.014;5.190;2023-02-24T06:33:32;12.98;;;4.32;;
37859;SDS011;23698;52.014;5.190;2023-02-24T06:36:21;14.55;;;4.10;;
37859;SDS011;23698;52.014;5.190;2023-02-24T06:39:08;10.57;;;1.85;;
37859;SDS011;23698;52.014;5.190;2023-02-24T06:41:59;9.93;;;2.65;;
37859;SDS011;23698;52.014;5.190;2023-02-24T06:44:48;8.75;;;1.65;;
37859;SDS011;23698;52.014;5.190;2023-02-24T06:47:34;4.88;;;1.70;;
37859;SDS011;23698;52.014;5.190;2023-02-24T06:50:21;7.43;;;1.85;;
37859;SDS011;23698;52.014;5.190;2023-02-24T06:53:09;10.23;;;2.83;;
37859;SDS011;23698;52.014;5.190;2023-02-24T06:56:04;9.85;;;2.17;;
37859;SDS011;23698;52.014;5.190;2023-02-24T06:58:58;9.43;;;2.88;;
37859;SDS011;23698;52.014;5.190;2023-02-24T07:01:45;9.77;;;1.80;;
37859;SDS011;23698;52.014;5.190;2023-02-24T07:04:32;8.23;;;3.17;;
37859;SDS011;23698;52.014;5.190;2023-02-24T07:07:27;7.35;;;1.95;;
37859;SDS011;23698;52.014;5.190;2023-02-24T07:10:15;9.13;;;1.83;;
37859;SDS011;23698;52.014;5.190;2023-02-24T07:13:02;9.20;;;1.90;;
37859;SDS011;23698;52.014;5.190;2023-02-24T07:15:49;8.77;;;2.00;;
37859;SDS011;23698;52.014;5.190;2023-02-24T07:18:36;10.57;;;2.15;;
37859;SDS011;23698;52.014;5.190;2023-02-24T07:21:26;7.22;;;2.00;;
37859;SDS011;23698;52.014;5.190;2023-02-24T07:24:15;13.25;;;1.80;;
37859;SDS011;23698;52.014;5.190;2023-02-24T07:27:11;11.82;;;2.88;;
37859;SDS011;23698;52.014;5.190;2023-02-24T07:30:07;8.70;;;2.50;;
37859;SDS011;23698;52.014;5.190;2023-02-24T07:32:56;5.25;;;1.90;;
37859;SDS011;23698;52.014;5.190;2023-02-24T07:35:42;16.27;;;2.63;;
37859;SDS011;23698;52.014;5.190;2023-02-24T07:38:29;13.23;;;1.77;;
37859;SDS011;23698;52.014;5.190;2023-02-24T07:41:15;12.05;;;2.88;;
37859;SDS011;23698;52.014;5.190;2023-02-24T07:44:05;11.40;;;1.75;;
37859;SDS011;23698;52.014;5.190;2023-02-24T07:46:53;10.17;;;2.17;;
37859;SDS011;23698;52.014;5.190;2023-02-24T07:49:43;6.38;;;1.15;;
37859;SDS011;23698;52.014;5.190;2023-02-24T07:52:30;15.50;;;3.03;;
37859;SDS011;23698;52.014;5.190;2023-02-24T07:55:17;10.07;;;2.08;;
37859;SDS011;23698;52.014;5.190;2023-02-24T07:58:03;11.95;;;2.00;;
37859;SDS011;23698;52.014;5.190;2023-02-24T08:00:52;15.25;;;2.50;;
37859;SDS011;23698;52.014;5.190;2023-02-24T08:03:45;8.20;;;2.67;;
37859;SDS011;23698;52.014;5.190;2023-02-24T08:06:32;14.48;;;2.28;;
37859;SDS011;23698;52.014;5.190;2023-02-24T08:09:24;11.60;;;1.88;;
37859;SDS011;23698;52.014;5.190;2023-02-24T08:12:30;12.77;;;2.20;;
37859;SDS011;23698;52.014;5.190;2023-02-24T08:15:19;8.68;;;2.03;;
37859;SDS011;23698;52.014;5.190;2023-02-24T08:18:10;16.05;;;2.38;;
37859;SDS011;23698;52.014;5.190;2023-02-24T08:20:58;11.38;;;2.30;;
37859;SDS011;23698;52.014;5.190;2023-02-24T08:23:48;10.43;;;2.42;;
37859;SDS011;23698;52.014;5.190;2023-02-24T08:26:37;9.80;;;2.15;;
37859;SDS011;23698;52.014;5.190;2023-02-24T08:29:29;19.92;;;2.85;;
37859;SDS011;23698;52.014;5.190;2023-02-24T08:32:15;9.77;;;2.72;;
37859;SDS011;23698;52.014;5.190;2023-02-24T08:35:07;15.73;;;2.67;;
37859;SDS011;23698;52.014;5.190;2023-02-24T08:38:00;10.55;;;2.70;;
37859;SDS011;23698;52.014;5.190;2023-02-24T08:40:50;13.85;;;2.60;;
37859;SDS011;23698;52.014;5.190;2023-02-24T08:43:39;7.43;;;2.03;;
37859;SDS011;23698;52.014;5.190;2023-02-24T08:46:26;10.60;;;2.40;;
37859;SDS011;23698;52.014;5.190;2023-02-24T08:49:22;12.05;;;2.03;;
37859;SDS011;23698;52.014;5.190;2023-02-24T08:52:11;12.45;;;3.08;;
37859;SDS011;23698;52.014;5.190;2023-02-24T08:54:57;12.90;;;2.58;;
37859;SDS011;23698;52.014;5.190;2023-02-24T08:57:45;13.77;;;2.67;;
37859;SDS011;23698;52.014;5.190;2023-02-24T09:00:37;17.60;;;2.63;;
37859;SDS011;23698;52.014;5.190;2023-02-24T09:03:33;12.80;;;2.50;;
37859;SDS011;23698;52.014;5.190;2023-02-24T09:06:24;21.58;;;3.03;;
37859;SDS011;23698;52.014;5.190;2023-02-24T09:09:21;9.75;;;2.22;;
37859;SDS011;23698;52.014;5.190;2023-02-24T09:12:07;12.82;;;3.20;;
37859;SDS011;23698;52.014;5.190;2023-02-24T09:15:07;12.35;;;2.75;;
37859;SDS011;23698;52.014;5.190;2023-02-24T09:17:55;11.02;;;3.60;;
37859;SDS011;23698;52.014;5.190;2023-02-24T09:20:51;15.00;;;4.93;;
37859;SDS011;23698;52.014;5.190;2023-02-24T09:23:58;17.05;;;3.30;;
37859;SDS011;23698;52.014;5.190;2023-02-24T09:26:48;18.20;;;3.63;;
37859;SDS011;23698;52.014;5.190;2023-02-24T09:29:42;26.80;;;3.70;;
37859;SDS011;23698;52.014;5.190;2023-02-24T09:32:33;13.77;;;4.25;;
37859;SDS011;23698;52.014;5.190;2023-02-24T09:35:20;16.00;;;3.30;;
37859;SDS011;23698;52.014;5.190;2023-02-24T09:38:15;14.38;;;3.53;;
37859;SDS011;23698;52.014;5.190;2023-02-24T09:41:06;17.15;;;4.05;;
37859;SDS011;23698;52.014;5.190;2023-02-24T09:47:04;15.95;;;3.03;;
37859;SDS011;23698;52.014;5.190;2023-02-24T09:50:02;17.23;;;3.40;;
37859;SDS011;23698;52.014;5.190;2023-02-24T09:52:58;15.98;;;3.38;;
37859;SDS011;23698;52.014;5.190;2023-02-24T09:55:58;14.15;;;2.90;;
37859;SDS011;23698;52.014;5.190;2023-02-24T09:58:50;11.57;;;3.13;;
37859;SDS011;23698;52.014;5.190;2023-02-24T10:01:45;13.85;;;3.03;;
37859;SDS011;23698;52.014;5.190;2023-02-24T10:04:40;15.95;;;3.35;;
37859;SDS011;23698;52.014;5.190;2023-02-24T10:07:40;18.67;;;4.22;;
37859;SDS011;23698;52.014;5.190;2023-02-24T10:10:29;17.45;;;3.92;;
37859;SDS011;23698;52.014;5.190;2023-02-24T10:13:22;25.35;;;3.95;;
37859;SDS011;23698;52.014;5.190;2023-02-24T10:16:18;16.88;;;3.80;;
37859;SDS011;23698;52.014;5.190;2023-02-24T10:19:13;20.58;;;4.25;;
37859;SDS011;23698;52.014;5.190;2023-02-24T10:22:11;22.10;;;4.10;;
37859;SDS011;23698;52.014;5.190;2023-02-24T10:25:18;22.77;;;5.63;;
37859;SDS011;23698;52.014;5.190;2023-02-24T10:28:13;19.50;;;4.40;;
37859;SDS011;23698;52.014;5.190;2023-02-24T10:31:09;24.02;;;5.30;;
37859;SDS011;23698;52.014;5.190;2023-02-24T10:34:11;17.65;;;4.15;;
37859;SDS011;23698;52.014;5.190;2023-02-24T10:37:09;20.10;;;4.78;;
37859;SDS011;23698;52.014;5.190;2023-02-24T10:40:13;19.20;;;4.57;;
37859;SDS011;23698;52.014;5.190;2023-02-24T10:43:13;22.20;;;5.53;;
37859;SDS011;23698;52.014;5.190;2023-02-24T10:46:04;19.25;;;5.55;;
37859;SDS011;23698;52.014;5.190;2023-02-24T10:49:02;20.63;;;5.28;;
37859;SDS011;23698;52.014;5.190;2023-02-24T10:51:55;26.13;;;5.43;;
37859;SDS011;23698;52.014;5.190;2023-02-24T10:54:43;14.88;;;5.25;;
37859;SDS011;23698;52.014;5.190;2023-02-24T10:57:49;21.33;;;5.60;;
37859;SDS011;23698;52.014;5.190;2023-02-24T11:00:44;22.02;;;7.68;;
37859;SDS011;23698;52.014;5.190;2023-02-24T11:03:53;21.58;;;6.90;;
37859;SDS011;23698;52.014;5.190;2023-02-24T11:07:10;24.05;;;8.10;;
37859;SDS011;23698;52.014;5.190;2023-02-24T11:10:11;19.95;;;7.68;;
37859;SDS011;23698;52.014;5.190;2023-02-24T11:12:59;20.90;;;6.75;;
37859;SDS011;23698;52.014;5.190;2023-02-24T11:16:06;19.88;;;7.20;;
37859;SDS011;23698;52.014;5.190;2023-02-24T11:19:10;20.48;;;7.63;;
37859;SDS011;23698;52.014;5.190;2023-02-24T11:21:57;21.23;;;8.00;;
37859;SDS011;23698;52.014;5.190;2023-02-24T11:24:46;17.20;;;7.45;;
37859;SDS011;23698;52.014;5.190;2023-02-24T11:27:39;19.58;;;9.13;;
37859;SDS011;23698;52.014;5.190;2023-02-24T11:30:32;20.75;;;8.27;;
37859;SDS011;23698;52.014;5.190;2023-02-24T11:33:27;20.60;;;9.02;;
37859;SDS011;23698;52.014;5.190;2023-02-24T11:36:21;21.10;;;8.75;;
37859;SDS011;23698;52.014;5.190;2023-02-24T11:39:24;15.60;;;9.32;;
37859;SDS011;23698;52.014;5.190;2023-02-24T11:42:22;19.85;;;8.90;;
37859;SDS011;23698;52.014;5.190;2023-02-24T11:45:14;14.00;;;8.65;;
37859;SDS011;23698;52.014;5.190;2023-02-24T11:48:11;14.27;;;8.23;;
37859;SDS011;23698;52.014;5.190;2023-02-24T11:51:02;16.15;;;8.65;;
37859;SDS011;23698;52.014;5.190;2023-02-24T11:56:41;19.35;;;9.50;;
37859;SDS011;23698;52.014;5.190;2023-02-24T11:59:32;16.70;;;9.40;;
37859;SDS011;23698;52.014;5.190;2023-02-24T12:02:26;20.80;;;9.20;;
37859;SDS011;23698;52.014;5.190;2023-02-24T12:05:24;19.10;;;9.63;;
37859;SDS011;23698;52.014;5.190;2023-02-24T12:08:15;20.60;;;10.25;;
37859;SDS011;23698;52.014;5.190;2023-02-24T12:11:10;21.05;;;9.60;;
37859;SDS011;23698;52.014;5.190;2023-02-24T12:14:07;19.00;;;9.43;;
37859;SDS011;23698;52.014;5.190;2023-02-24T12:17:09;29.30;;;12.20;;
37859;SDS011;23698;52.014;5.190;2023-02-24T12:20:03;23.45;;;10.30;;
37859;SDS011;23698;52.014;5.190;2023-02-24T12:23:00;24.08;;;9.50;;
37859;SDS011;23698;52.014;5.190;2023-02-24T12:25:57;22.17;;;9.80;;
37859;SDS011;23698;52.014;5.190;2023-02-24T12:28:57;21.15;;;8.93;;
37859;SDS011;23698;52.014;5.190;2023-02-24T12:31:55;28.08;;;9.90;;
37859;SDS011;23698;52.014;5.190;2023-02-24T12:34:54;25.08;;;9.43;;
37859;SDS011;23698;52.014;5.190;2023-02-24T12:37:54;25.52;;;9.02;;
37859;SDS011;23698;52.014;5.190;2023-02-24T12:40:50;29.33;;;8.98;;
37859;SDS011;23698;52.014;5.190;2023-02-24T12:43:43;25.15;;;8.32;;
37859;SDS011;23698;52.014;5.190;2023-02-24T12:46:37;28.95;;;8.52;;
37859;SDS011;23698;52.014;5.190;2023-02-24T12:49:28;24.52;;;7.03;;
37859;SDS011;23698;52.014;5.190;2023-02-24T12:52:30;26.25;;;6.28;;
37859;SDS011;23698;52.014;5.190;2023-02-24T12:55:26;24.17;;;5.72;;
37859;SDS011;23698;52.014;5.190;2023-02-24T12:58:19;26.40;;;5.32;;
37859;SDS011;23698;52.014;5.190;2023-02-24T13:01:11;22.88;;;3.85;;
37859;SDS011;23698;52.014;5.190;2023-02-24T13:04:10;25.55;;;3.78;;
37859;SDS011;23698;52.014;5.190;2023-02-24T13:07:18;34.13;;;4.97;;
37859;SDS011;23698;52.014;5.190;2023-02-24T13:10:19;23.65;;;3.83;;
37859;SDS011;23698;52.014;5.190;2023-02-24T13:13:18;25.75;;;3.95;;
37859;SDS011;23698;52.014;5.190;2023-02-24T13:16:13;20.77;;;3.03;;
37859;SDS011;23698;52.014;5.190;2023-02-24T13:19:03;24.63;;;3.95;;
37859;SDS011;23698;52.014;5.190;2023-02-24T13:21:54;26.15;;;3.20;;
37859;SDS011;23698;52.014;5.190;2023-02-24T13:24:54;24.60;;;3.75;;
37859;SDS011;23698;52.014;5.190;2023-02-24T13:27:52;23.33;;;4.03;;
37859;SDS011;23698;52.014;5.190;2023-02-24T13:30:43;21.83;;;3.25;;
37859;SDS011;23698;52.014;5.190;2023-02-24T13:33:31;27.38;;;3.80;;
37859;SDS011;23698;52.014;5.190;2023-02-24T13:36:19;29.80;;;3.60;;
37859;SDS011;23698;52.014;5.190;2023-02-24T13:39:18;19.15;;;3.30;;
37859;SDS011;23698;52.014;5.190;2023-02-24T13:42:20;21.30;;;3.30;;
37859;SDS011;23698;52.014;5.190;2023-02-24T13:45:18;28.17;;;3.95;;
37859;SDS011;23698;52.014;5.190;2023-02-24T13:48:17;20.25;;;3.42;;
37859;SDS011;23698;52.014;5.190;2023-02-24T13:51:28;17.65;;;3.28;;
37859;SDS011;23698;52.014;5.190;2023-02-24T13:54:57;24.55;;;3.33;;
37859;SDS011;23698;52.014;5.190;2023-02-24T14:01:13;19.75;;;2.53;;
37859;SDS011;23698;52.014;5.190;2023-02-24T14:06:59;15.65;;;2.60;;
37859;SDS011;23698;52.014;5.190;2023-02-24T14:09:50;19.98;;;3.17;;
37859;SDS011;23698;52.014;5.190;2023-02-24T14:12:39;16.17;;;2.95;;
37859;SDS011;23698;52.014;5.190;2023-02-24T14:15:28;11.73;;;2.07;;
37859;SDS011;23698;52.014;5.190;2023-02-24T14:18:19;9.93;;;1.73;;
37859;SDS011;23698;52.014;5.190;2023-02-24T14:21:16;9.95;;;1.48;;
37859;SDS011;23698;52.014;5.190;2023-02-24T14:24:09;9.80;;;1.47;;
37859;SDS011;23698;52.014;5.190;2023-02-24T14:26:58;11.70;;;2.22;;
37859;SDS011;23698;52.014;5.190;2023-02-24T14:29:46;17.38;;;1.88;;
37859;SDS011;23698;52.014;5.190;2023-02-24T14:32:36;12.82;;;1.73;;
37859;SDS011;23698;52.014;5.190;2023-02-24T14:35:30;10.57;;;2.28;;
37859;SDS011;23698;52.014;5.190;2023-02-24T14:38:29;9.98;;;1.63;;
37859;SDS011;23698;52.014;5.190;2023-02-24T14:41:18;19.23;;;2.83;;
37859;SDS011;23698;52.014;5.190;2023-02-24T14:44:07;14.10;;;2.33;;
37859;SDS011;23698;52.014;5.190;2023-02-24T14:47:03;16.90;;;2.28;;
37859;SDS011;23698;52.014;5.190;2023-02-24T14:49:55;12.63;;;2.33;;
37859;SDS011;23698;52.014;5.190;2023-02-24T14:52:45;19.45;;;2.88;;
37859;SDS011;23698;52.014;5.190;2023-02-24T14:55:36;11.57;;;2.20;;
37859;SDS011;23698;52.014;5.190;2023-02-24T14:58:27;22.75;;;2.42;;
37859;SDS011;23698;52.014;5.190;2023-02-24T15:01:18;19.10;;;3.55;;
37859;SDS011;23698;52.014;5.190;2023-02-24T15:04:10;19.92;;;2.80;;
37859;SDS011;23698;52.014;5.190;2023-02-24T15:07:00;26.10;;;3.63;;
37859;SDS011;23698;52.014;5.190;2023-02-24T15:09:49;12.32;;;2.25;;
37859;SDS011;23698;52.014;5.190;2023-02-24T15:12:42;17.15;;;2.70;;
37859;SDS011;23698;52.014;5.190;2023-02-24T15:15:33;16.15;;;1.98;;
37859;SDS011;23698;52.014;5.190;2023-02-24T15:18:23;13.88;;;1.90;;
37859;SDS011;23698;52.014;5.190;2023-02-24T15:24:12;13.02;;;1.88;;
37859;SDS011;23698;52.014;5.190;2023-02-24T15:27:18;14.48;;;1.75;;
37859;SDS011;23698;52.014;5.190;2023-02-24T15:30:20;27.58;;;10.80;;
37859;SDS011;23698;52.014;5.190;2023-02-24T15:33:14;10.50;;;1.50;;
37859;SDS011;23698;52.014;5.190;2023-02-24T15:36:09;11.85;;;1.10;;
37859;SDS011;23698;52.014;5.190;2023-02-24T15:39:02;9.82;;;1.35;;
37859;SDS011;23698;52.014;5.190;2023-02-24T15:41:50;10.27;;;1.50;;
37859;SDS011;23698;52.014;5.190;2023-02-24T15:44:52;12.88;;;1.17;;
37859;SDS011;23698;52.014;5.190;2023-02-24T15:47:42;8.75;;;1.10;;
37859;SDS011;23698;52.014;5.190;2023-02-24T15:50:30;7.68;;;0.98;;
37859;SDS011;23698;52.014;5.190;2023-02-24T15:53:17;5.10;;;0.80;;
37859;SDS011;23698;52.014;5.190;2023-02-24T15:56:04;10.65;;;1.30;;
37859;SDS011;23698;52.014;5.190;2023-02-24T15:58:50;7.70;;;1.13;;
37859;SDS011;23698;52.014;5.190;2023-02-24T16:01:38;6.22;;;1.20;;
37859;SDS011;23698;52.014;5.190;2023-02-24T16:04:25;11.90;;;1.42;;
37859;SDS011;23698;52.014;5.190;2023-02-24T16:07:14;9.27;;;1.90;;
37859;SDS011;23698;52.014;5.190;2023-02-24T16:10:03;11.82;;;1.20;;
37859;SDS011;23698;52.014;5.190;2023-02-24T16:12:52;15.65;;;1.80;;
37859;SDS011;23698;52.014;5.190;2023-02-24T16:15:41;7.93;;;1.33;;
37859;SDS011;23698;52.014;5.190;2023-02-24T16:18:32;11.45;;;1.48;;
37859;SDS011;23698;52.014;5.190;2023-02-24T16:21:18;5.38;;;1.08;;
37859;SDS011;23698;52.014;5.190;2023-02-24T16:24:05;6.93;;;1.40;;
37859;SDS011;23698;52.014;5.190;2023-02-24T16:26:52;8.75;;;1.80;;
37859;SDS011;23698;52.014;5.190;2023-02-24T16:29:39;6.43;;;1.15;;
37859;SDS011;23698;52.014;5.190;2023-02-24T16:32:25;7.88;;;1.30;;
37859;SDS011;23698;52.014;5.190;2023-02-24T16:35:14;4.70;;;1.23;;
37859;SDS011;23698;52.014;5.190;2023-02-24T16:38:00;6.57;;;1.48;;
37859;SDS011;23698;52.014;5.190;2023-02-24T16:40:47;2.88;;;0.93;;
37859;SDS011;23698;52.014;5.190;2023-02-24T16:43:34;6.40;;;1.00;;
37859;SDS011;23698;52.014;5.190;2023-02-24T16:46:22;6.32;;;0.77;;
37859;SDS011;23698;52.014;5.190;2023-02-24T16:49:09;7.20;;;0.70;;
37859;SDS011;23698;52.014;5.190;2023-02-24T16:52:04;4.53;;;1.08;;
37859;SDS011;23698;52.014;5.190;2023-02-24T16:54:50;6.78;;;1.38;;
37859;SDS011;23698;52.014;5.190;2023-02-24T16:57:37;6.93;;;1.48;;
37859;SDS011;23698;52.014;5.190;2023-02-24T17:00:24;8.25;;;1.25;;
37859;SDS011;23698;52.014;5.190;2023-02-24T17:03:14;4.72;;;1.25;;
37859;SDS011;23698;52.014;5.190;2023-02-24T17:06:03;11.95;;;2.67;;
37859;SDS011;23698;52.014;5.190;2023-02-24T17:08:51;12.38;;;3.78;;
37859;SDS011;23698;52.014;5.190;2023-02-24T17:11:38;16.42;;;2.47;;
37859;SDS011;23698;52.014;5.190;2023-02-24T17:14:25;11.48;;;1.83;;
37859;SDS011;23698;52.014;5.190;2023-02-24T17:17:11;11.32;;;1.85;;
37859;SDS011;23698;52.014;5.190;2023-02-24T17:19:58;11.18;;;1.92;;
37859;SDS011;23698;52.014;5.190;2023-02-24T17:22:45;15.27;;;1.92;;
37859;SDS011;23698;52.014;5.190;2023-02-24T17:25:33;14.20;;;2.20;;
37859;SDS011;23698;52.014;5.190;2023-02-24T17:28:19;17.73;;;2.53;;